sensor_id;sensor_type;location;lat;lon;timestamp;P1;durP1;ratioP1;P2;durP2;ratioP2
32826;SDS011;51059;42.058;27.986;2022-10-31T00:00:06;12.13;;;8.87;;
32826;SDS011;51059;42.058;27.986;2022-10-31T00:02:33;12.07;;;8.57;;
32826;SDS011;51059;42.058;27.986;2022-10-31T00:04:59;13.30;;;9.13;;
32826;SDS011;51059;42.058;27.986;2022-10-31T00:07:24;12.03;;;8.33;;
32826;SDS011;51059;42.058;27.986;2022-10-31T00:09:50;9.97;;;8.40;;
32826;SDS011;51059;42.058;27.986;2022-10-31T00:12:15;12.17;;;8.97;;
32826;SDS011;51059;42.058;27.986;2022-10-31T00:14:41;11.30;;;9.00;;
32826;SDS011;51059;42.058;27.986;2022-10-31T00:17:06;10.40;;;8.73;;
32826;SDS011;51059;42.058;27.986;2022-10-31T00:19:32;12.67;;;8.63;;
32826;SDS011;51059;42.058;27.986;2022-10-31T00:21:58;13.73;;;8.80;;
32826;SDS011;51059;42.058;27.986;2022-10-31T00:24:23;10.90;;;9.20;;
32826;SDS011;51059;42.058;27.986;2022-10-31T00:26:49;12.20;;;9.07;;
32826;SDS011;51059;42.058;27.986;2022-10-31T00:29:14;17.40;;;9.20;;
32826;SDS011;51059;42.058;27.986;2022-10-31T00:31:40;12.73;;;9.27;;
32826;SDS011;51059;42.058;27.986;2022-10-31T00:34:06;14.83;;;9.60;;
32826;SDS011;51059;42.058;27.986;2022-10-31T00:36:31;13.80;;;9.17;;
32826;SDS011;51059;42.058;27.986;2022-10-31T00:38:57;12.70;;;9.40;;
32826;SDS011;51059;42.058;27.986;2022-10-31T00:41:23;11.03;;;9.00;;
32826;SDS011;51059;42.058;27.986;2022-10-31T00:43:49;13.00;;;9.20;;
32826;SDS011;51059;42.058;27.986;2022-10-31T00:46:15;12.80;;;9.40;;
32826;SDS011;51059;42.058;27.986;2022-10-31T00:48:41;9.87;;;8.53;;
32826;SDS011;51059;42.058;27.986;2022-10-31T00:51:07;11.67;;;8.90;;
32826;SDS011;51059;42.058;27.986;2022-10-31T00:53:32;11.03;;;9.00;;
32826;SDS011;51059;42.058;27.986;2022-10-31T00:55:58;11.23;;;9.07;;
32826;SDS011;51059;42.058;27.986;2022-10-31T00:58:24;14.17;;;9.20;;
32826;SDS011;51059;42.058;27.986;2022-10-31T01:00:49;20.07;;;10.13;;
32826;SDS011;51059;42.058;27.986;2022-10-31T01:03:25;13.40;;;9.40;;
32826;SDS011;51059;42.058;27.986;2022-10-31T01:05:59;12.00;;;9.60;;
32826;SDS011;51059;42.058;27.986;2022-10-31T01:08:25;15.57;;;9.43;;
32826;SDS011;51059;42.058;27.986;2022-10-31T01:11:02;14.83;;;9.53;;
32826;SDS011;51059;42.058;27.986;2022-10-31T01:13:40;10.77;;;9.10;;
32826;SDS011;51059;42.058;27.986;2022-10-31T01:16:07;12.70;;;9.57;;
32826;SDS011;51059;42.058;27.986;2022-10-31T01:18:33;11.13;;;9.10;;
32826;SDS011;51059;42.058;27.986;2022-10-31T01:21:09;11.23;;;9.40;;
32826;SDS011;51059;42.058;27.986;2022-10-31T01:23:39;14.03;;;9.00;;
32826;SDS011;51059;42.058;27.986;2022-10-31T01:28:39;11.30;;;9.27;;
32826;SDS011;51059;42.058;27.986;2022-10-31T01:31:09;12.60;;;9.27;;
32826;SDS011;51059;42.058;27.986;2022-10-31T01:33:35;11.20;;;8.53;;
32826;SDS011;51059;42.058;27.986;2022-10-31T01:36:01;13.40;;;9.70;;
32826;SDS011;51059;42.058;27.986;2022-10-31T01:38:36;10.37;;;9.17;;
32826;SDS011;51059;42.058;27.986;2022-10-31T01:41:01;16.67;;;9.57;;
32826;SDS011;51059;42.058;27.986;2022-10-31T01:46:08;12.27;;;9.40;;
32826;SDS011;51059;42.058;27.986;2022-10-31T01:48:34;14.73;;;9.87;;
32826;SDS011;51059;42.058;27.986;2022-10-31T01:51:00;12.53;;;9.17;;
32826;SDS011;51059;42.058;27.986;2022-10-31T01:53:25;10.20;;;9.10;;
32826;SDS011;51059;42.058;27.986;2022-10-31T01:55:51;13.23;;;9.63;;
32826;SDS011;51059;42.058;27.986;2022-10-31T01:58:22;11.23;;;9.53;;
32826;SDS011;51059;42.058;27.986;2022-10-31T02:00:51;15.07;;;10.00;;
32826;SDS011;51059;42.058;27.986;2022-10-31T02:03:19;15.57;;;9.77;;
32826;SDS011;51059;42.058;27.986;2022-10-31T02:05:45;13.20;;;9.57;;
32826;SDS011;51059;42.058;27.986;2022-10-31T02:10:54;11.03;;;9.40;;
32826;SDS011;51059;42.058;27.986;2022-10-31T02:13:20;13.37;;;9.80;;
32826;SDS011;51059;42.058;27.986;2022-10-31T02:15:47;12.13;;;9.43;;
32826;SDS011;51059;42.058;27.986;2022-10-31T02:18:14;15.47;;;9.90;;
32826;SDS011;51059;42.058;27.986;2022-10-31T02:28:52;15.17;;;9.57;;
32826;SDS011;51059;42.058;27.986;2022-10-31T02:31:58;12.80;;;10.30;;
32826;SDS011;51059;42.058;27.986;2022-10-31T02:34:39;14.70;;;10.93;;
32826;SDS011;51059;42.058;27.986;2022-10-31T02:37:13;15.53;;;10.40;;
32826;SDS011;51059;42.058;27.986;2022-10-31T02:42:33;12.80;;;10.13;;
32826;SDS011;51059;42.058;27.986;2022-10-31T02:45:50;12.47;;;9.60;;
32826;SDS011;51059;42.058;27.986;2022-10-31T02:48:19;13.10;;;10.03;;
32826;SDS011;51059;42.058;27.986;2022-10-31T02:50:49;12.30;;;9.90;;
32826;SDS011;51059;42.058;27.986;2022-10-31T02:53:17;12.40;;;9.90;;
32826;SDS011;51059;42.058;27.986;2022-10-31T02:56:17;12.40;;;9.77;;
32826;SDS011;51059;42.058;27.986;2022-10-31T02:58:41;13.17;;;10.17;;
32826;SDS011;51059;42.058;27.986;2022-10-31T03:12:00;14.07;;;9.77;;
32826;SDS011;51059;42.058;27.986;2022-10-31T03:14:52;15.30;;;10.57;;
32826;SDS011;51059;42.058;27.986;2022-10-31T03:17:37;14.67;;;10.23;;
32826;SDS011;51059;42.058;27.986;2022-10-31T03:20:05;15.07;;;10.10;;
32826;SDS011;51059;42.058;27.986;2022-10-31T03:22:32;14.43;;;10.37;;
32826;SDS011;51059;42.058;27.986;2022-10-31T03:24:59;15.03;;;10.33;;
32826;SDS011;51059;42.058;27.986;2022-10-31T03:27:27;14.80;;;11.03;;
32826;SDS011;51059;42.058;27.986;2022-10-31T03:29:55;14.37;;;11.40;;
32826;SDS011;51059;42.058;27.986;2022-10-31T03:32:27;17.50;;;11.30;;
32826;SDS011;51059;42.058;27.986;2022-10-31T03:35:01;15.50;;;11.47;;
32826;SDS011;51059;42.058;27.986;2022-10-31T03:37:29;16.53;;;11.37;;
32826;SDS011;51059;42.058;27.986;2022-10-31T03:39:55;17.83;;;12.37;;
32826;SDS011;51059;42.058;27.986;2022-10-31T03:42:25;18.17;;;12.00;;
32826;SDS011;51059;42.058;27.986;2022-10-31T03:45:02;16.57;;;11.40;;
32826;SDS011;51059;42.058;27.986;2022-10-31T03:47:32;14.53;;;11.13;;
32826;SDS011;51059;42.058;27.986;2022-10-31T03:49:59;14.63;;;11.77;;
32826;SDS011;51059;42.058;27.986;2022-10-31T03:52:39;15.70;;;11.80;;
32826;SDS011;51059;42.058;27.986;2022-10-31T03:55:20;15.97;;;12.27;;
32826;SDS011;51059;42.058;27.986;2022-10-31T03:58:06;17.70;;;11.87;;
32826;SDS011;51059;42.058;27.986;2022-10-31T04:00:35;14.43;;;11.53;;
32826;SDS011;51059;42.058;27.986;2022-10-31T04:03:06;18.07;;;12.20;;
32826;SDS011;51059;42.058;27.986;2022-10-31T04:05:35;16.73;;;11.40;;
32826;SDS011;51059;42.058;27.986;2022-10-31T04:08:01;15.10;;;11.00;;
32826;SDS011;51059;42.058;27.986;2022-10-31T04:10:29;13.60;;;10.53;;
32826;SDS011;51059;42.058;27.986;2022-10-31T04:12:56;11.97;;;10.20;;
32826;SDS011;51059;42.058;27.986;2022-10-31T04:15:25;14.03;;;10.80;;
32826;SDS011;51059;42.058;27.986;2022-10-31T04:17:52;15.30;;;10.83;;
32826;SDS011;51059;42.058;27.986;2022-10-31T04:20:28;13.53;;;10.43;;
32826;SDS011;51059;42.058;27.986;2022-10-31T04:22:55;18.63;;;11.37;;
32826;SDS011;51059;42.058;27.986;2022-10-31T04:25:20;16.93;;;12.03;;
32826;SDS011;51059;42.058;27.986;2022-10-31T04:27:46;14.43;;;11.50;;
32826;SDS011;51059;42.058;27.986;2022-10-31T04:30:11;18.43;;;11.77;;
32826;SDS011;51059;42.058;27.986;2022-10-31T04:32:37;14.50;;;11.33;;
32826;SDS011;51059;42.058;27.986;2022-10-31T04:35:03;13.50;;;11.23;;
32826;SDS011;51059;42.058;27.986;2022-10-31T04:37:29;13.00;;;10.93;;
32826;SDS011;51059;42.058;27.986;2022-10-31T04:39:54;22.33;;;11.27;;
32826;SDS011;51059;42.058;27.986;2022-10-31T04:42:20;13.60;;;11.30;;
32826;SDS011;51059;42.058;27.986;2022-10-31T04:44:45;17.53;;;11.50;;
32826;SDS011;51059;42.058;27.986;2022-10-31T04:47:11;17.33;;;12.60;;
32826;SDS011;51059;42.058;27.986;2022-10-31T04:49:36;23.07;;;12.77;;
32826;SDS011;51059;42.058;27.986;2022-10-31T04:52:02;19.87;;;13.37;;
32826;SDS011;51059;42.058;27.986;2022-10-31T04:54:28;18.73;;;12.00;;
32826;SDS011;51059;42.058;27.986;2022-10-31T04:56:53;13.97;;;11.73;;
32826;SDS011;51059;42.058;27.986;2022-10-31T04:59:19;15.00;;;11.80;;
32826;SDS011;51059;42.058;27.986;2022-10-31T05:01:44;19.03;;;11.67;;
32826;SDS011;51059;42.058;27.986;2022-10-31T05:04:10;16.07;;;12.03;;
32826;SDS011;51059;42.058;27.986;2022-10-31T05:06:36;16.93;;;11.60;;
32826;SDS011;51059;42.058;27.986;2022-10-31T05:09:01;18.63;;;12.10;;
32826;SDS011;51059;42.058;27.986;2022-10-31T05:11:27;14.23;;;11.27;;
32826;SDS011;51059;42.058;27.986;2022-10-31T05:13:52;20.07;;;10.87;;
32826;SDS011;51059;42.058;27.986;2022-10-31T05:16:18;18.63;;;11.37;;
32826;SDS011;51059;42.058;27.986;2022-10-31T05:18:44;15.33;;;11.57;;
32826;SDS011;51059;42.058;27.986;2022-10-31T05:21:09;13.63;;;10.83;;
32826;SDS011;51059;42.058;27.986;2022-10-31T05:23:35;13.07;;;10.97;;
32826;SDS011;51059;42.058;27.986;2022-10-31T05:26:00;13.60;;;10.50;;
32826;SDS011;51059;42.058;27.986;2022-10-31T05:28:26;12.33;;;10.10;;
32826;SDS011;51059;42.058;27.986;2022-10-31T05:30:51;20.00;;;11.87;;
32826;SDS011;51059;42.058;27.986;2022-10-31T05:33:17;14.33;;;11.60;;
32826;SDS011;51059;42.058;27.986;2022-10-31T05:35:43;15.33;;;11.17;;
32826;SDS011;51059;42.058;27.986;2022-10-31T05:38:08;15.37;;;10.93;;
32826;SDS011;51059;42.058;27.986;2022-10-31T05:40:34;14.87;;;11.13;;
32826;SDS011;51059;42.058;27.986;2022-10-31T05:42:59;15.33;;;11.60;;
32826;SDS011;51059;42.058;27.986;2022-10-31T05:45:25;18.00;;;11.57;;
32826;SDS011;51059;42.058;27.986;2022-10-31T05:47:54;14.77;;;11.03;;
32826;SDS011;51059;42.058;27.986;2022-10-31T05:50:23;17.83;;;11.23;;
32826;SDS011;51059;42.058;27.986;2022-10-31T05:52:56;17.57;;;11.60;;
32826;SDS011;51059;42.058;27.986;2022-10-31T05:55:23;16.70;;;11.17;;
32826;SDS011;51059;42.058;27.986;2022-10-31T05:57:50;18.97;;;12.07;;
32826;SDS011;51059;42.058;27.986;2022-10-31T06:00:17;16.23;;;11.90;;
32826;SDS011;51059;42.058;27.986;2022-10-31T06:02:43;15.00;;;11.60;;
32826;SDS011;51059;42.058;27.986;2022-10-31T06:05:09;15.10;;;12.60;;
32826;SDS011;51059;42.058;27.986;2022-10-31T06:07:34;17.43;;;13.57;;
32826;SDS011;51059;42.058;27.986;2022-10-31T06:10:01;24.47;;;14.37;;
32826;SDS011;51059;42.058;27.986;2022-10-31T06:12:27;17.07;;;13.40;;
32826;SDS011;51059;42.058;27.986;2022-10-31T06:14:53;17.20;;;12.30;;
32826;SDS011;51059;42.058;27.986;2022-10-31T06:17:19;19.40;;;13.03;;
32826;SDS011;51059;42.058;27.986;2022-10-31T06:19:44;19.20;;;13.23;;
32826;SDS011;51059;42.058;27.986;2022-10-31T06:22:10;15.47;;;12.83;;
32826;SDS011;51059;42.058;27.986;2022-10-31T06:24:38;16.10;;;12.27;;
32826;SDS011;51059;42.058;27.986;2022-10-31T06:27:04;22.10;;;13.23;;
32826;SDS011;51059;42.058;27.986;2022-10-31T06:29:30;18.03;;;14.07;;
32826;SDS011;51059;42.058;27.986;2022-10-31T06:31:56;18.90;;;14.27;;
32826;SDS011;51059;42.058;27.986;2022-10-31T06:34:22;17.10;;;14.17;;
32826;SDS011;51059;42.058;27.986;2022-10-31T06:36:47;17.43;;;13.07;;
32826;SDS011;51059;42.058;27.986;2022-10-31T06:39:13;18.47;;;13.57;;
32826;SDS011;51059;42.058;27.986;2022-10-31T06:41:39;17.50;;;13.70;;
32826;SDS011;51059;42.058;27.986;2022-10-31T06:44:06;15.93;;;12.93;;
32826;SDS011;51059;42.058;27.986;2022-10-31T06:46:32;19.77;;;13.43;;
32826;SDS011;51059;42.058;27.986;2022-10-31T06:48:58;23.03;;;12.93;;
32826;SDS011;51059;42.058;27.986;2022-10-31T06:51:23;20.23;;;13.47;;
32826;SDS011;51059;42.058;27.986;2022-10-31T06:53:49;16.33;;;13.10;;
32826;SDS011;51059;42.058;27.986;2022-10-31T06:56:14;15.70;;;13.50;;
32826;SDS011;51059;42.058;27.986;2022-10-31T06:58:40;18.97;;;13.17;;
32826;SDS011;51059;42.058;27.986;2022-10-31T07:01:06;22.63;;;14.40;;
32826;SDS011;51059;42.058;27.986;2022-10-31T07:03:31;17.90;;;13.57;;
32826;SDS011;51059;42.058;27.986;2022-10-31T07:05:57;20.03;;;13.63;;
32826;SDS011;51059;42.058;27.986;2022-10-31T07:08:23;16.80;;;14.03;;
32826;SDS011;51059;42.058;27.986;2022-10-31T07:10:52;16.53;;;14.60;;
32826;SDS011;51059;42.058;27.986;2022-10-31T07:13:19;16.97;;;13.93;;
32826;SDS011;51059;42.058;27.986;2022-10-31T07:15:49;17.87;;;13.30;;
32826;SDS011;51059;42.058;27.986;2022-10-31T07:18:15;18.30;;;13.30;;
32826;SDS011;51059;42.058;27.986;2022-10-31T07:20:41;14.20;;;12.70;;
32826;SDS011;51059;42.058;27.986;2022-10-31T07:23:09;16.37;;;12.00;;
32826;SDS011;51059;42.058;27.986;2022-10-31T07:25:36;15.47;;;12.50;;
32826;SDS011;51059;42.058;27.986;2022-10-31T07:28:02;19.23;;;12.57;;
32826;SDS011;51059;42.058;27.986;2022-10-31T07:30:27;14.67;;;12.10;;
32826;SDS011;51059;42.058;27.986;2022-10-31T07:32:53;15.20;;;12.37;;
32826;SDS011;51059;42.058;27.986;2022-10-31T07:35:20;15.23;;;11.87;;
32826;SDS011;51059;42.058;27.986;2022-10-31T07:37:49;19.87;;;13.10;;
32826;SDS011;51059;42.058;27.986;2022-10-31T07:40:15;15.40;;;13.30;;
32826;SDS011;51059;42.058;27.986;2022-10-31T07:42:42;20.30;;;12.97;;
32826;SDS011;51059;42.058;27.986;2022-10-31T07:45:09;15.97;;;12.47;;
32826;SDS011;51059;42.058;27.986;2022-10-31T07:47:39;22.17;;;12.50;;
32826;SDS011;51059;42.058;27.986;2022-10-31T07:50:06;17.70;;;11.47;;
32826;SDS011;51059;42.058;27.986;2022-10-31T07:52:32;14.37;;;11.33;;
32826;SDS011;51059;42.058;27.986;2022-10-31T07:54:58;18.83;;;11.57;;
32826;SDS011;51059;42.058;27.986;2022-10-31T07:57:23;14.27;;;11.47;;
32826;SDS011;51059;42.058;27.986;2022-10-31T07:59:49;14.20;;;11.23;;
32826;SDS011;51059;42.058;27.986;2022-10-31T08:02:14;16.87;;;10.67;;
32826;SDS011;51059;42.058;27.986;2022-10-31T08:04:40;14.77;;;10.63;;
32826;SDS011;51059;42.058;27.986;2022-10-31T08:07:05;17.73;;;10.83;;
32826;SDS011;51059;42.058;27.986;2022-10-31T08:09:31;13.73;;;10.43;;
32826;SDS011;51059;42.058;27.986;2022-10-31T08:11:57;10.00;;;8.90;;
32826;SDS011;51059;42.058;27.986;2022-10-31T08:14:22;14.30;;;9.50;;
32826;SDS011;51059;42.058;27.986;2022-10-31T08:16:48;16.17;;;8.70;;
32826;SDS011;51059;42.058;27.986;2022-10-31T08:19:13;14.00;;;9.67;;
32826;SDS011;51059;42.058;27.986;2022-10-31T08:21:39;16.23;;;9.00;;
32826;SDS011;51059;42.058;27.986;2022-10-31T08:24:05;12.93;;;8.70;;
32826;SDS011;51059;42.058;27.986;2022-10-31T08:26:31;13.50;;;8.33;;
32826;SDS011;51059;42.058;27.986;2022-10-31T08:28:56;13.57;;;8.03;;
32826;SDS011;51059;42.058;27.986;2022-10-31T08:31:22;15.13;;;7.80;;
32826;SDS011;51059;42.058;27.986;2022-10-31T08:33:48;11.57;;;7.33;;
32826;SDS011;51059;42.058;27.986;2022-10-31T08:36:14;9.73;;;7.37;;
32826;SDS011;51059;42.058;27.986;2022-10-31T08:38:40;12.00;;;7.30;;
32826;SDS011;51059;42.058;27.986;2022-10-31T08:41:05;8.83;;;6.87;;
32826;SDS011;51059;42.058;27.986;2022-10-31T08:43:31;7.60;;;6.27;;
32826;SDS011;51059;42.058;27.986;2022-10-31T08:45:56;10.45;;;5.70;;
32826;SDS011;51059;42.058;27.986;2022-10-31T08:48:22;6.27;;;5.40;;
32826;SDS011;51059;42.058;27.986;2022-10-31T08:50:47;9.33;;;5.57;;
32826;SDS011;51059;42.058;27.986;2022-10-31T08:53:14;6.40;;;5.80;;
32826;SDS011;51059;42.058;27.986;2022-10-31T08:55:41;7.43;;;4.83;;
32826;SDS011;51059;42.058;27.986;2022-10-31T08:58:12;5.60;;;4.70;;
32826;SDS011;51059;42.058;27.986;2022-10-31T09:00:39;8.10;;;4.83;;
32826;SDS011;51059;42.058;27.986;2022-10-31T09:03:05;9.07;;;4.87;;
32826;SDS011;51059;42.058;27.986;2022-10-31T09:05:35;6.95;;;5.00;;
32826;SDS011;51059;42.058;27.986;2022-10-31T09:08:01;6.63;;;4.80;;
32826;SDS011;51059;42.058;27.986;2022-10-31T09:10:29;6.70;;;4.60;;
32826;SDS011;51059;42.058;27.986;2022-10-31T09:12:56;7.07;;;4.87;;
32826;SDS011;51059;42.058;27.986;2022-10-31T09:15:25;7.30;;;4.65;;
32826;SDS011;51059;42.058;27.986;2022-10-31T09:17:50;5.73;;;5.17;;
32826;SDS011;51059;42.058;27.986;2022-10-31T09:20:16;8.23;;;4.40;;
32826;SDS011;51059;42.058;27.986;2022-10-31T09:22:42;6.22;;;4.75;;
32826;SDS011;51059;42.058;27.986;2022-10-31T09:25:08;7.77;;;5.00;;
32826;SDS011;51059;42.058;27.986;2022-10-31T09:27:34;7.10;;;5.43;;
32826;SDS011;51059;42.058;27.986;2022-10-31T09:29:59;7.07;;;5.30;;
32826;SDS011;51059;42.058;27.986;2022-10-31T09:32:25;8.70;;;5.20;;
32826;SDS011;51059;42.058;27.986;2022-10-31T09:34:51;7.83;;;5.13;;
32826;SDS011;51059;42.058;27.986;2022-10-31T09:37:16;7.33;;;5.03;;
32826;SDS011;51059;42.058;27.986;2022-10-31T09:39:42;6.78;;;5.00;;
32826;SDS011;51059;42.058;27.986;2022-10-31T09:42:23;6.83;;;5.30;;
32826;SDS011;51059;42.058;27.986;2022-10-31T09:45:07;8.13;;;5.10;;
32826;SDS011;51059;42.058;27.986;2022-10-31T09:50:53;7.67;;;5.20;;
32826;SDS011;51059;42.058;27.986;2022-10-31T09:53:36;6.43;;;5.50;;
32826;SDS011;51059;42.058;27.986;2022-10-31T09:56:06;11.50;;;5.90;;
32826;SDS011;51059;42.058;27.986;2022-10-31T09:58:39;8.50;;;6.00;;
32826;SDS011;51059;42.058;27.986;2022-10-31T10:01:09;10.25;;;5.93;;
32826;SDS011;51059;42.058;27.986;2022-10-31T10:03:46;10.67;;;6.00;;
32826;SDS011;51059;42.058;27.986;2022-10-31T10:06:23;7.55;;;5.65;;
32826;SDS011;51059;42.058;27.986;2022-10-31T10:08:50;7.13;;;5.47;;
32826;SDS011;51059;42.058;27.986;2022-10-31T10:11:23;7.40;;;5.93;;
32826;SDS011;51059;42.058;27.986;2022-10-31T10:19:50;6.70;;;5.97;;
32826;SDS011;51059;42.058;27.986;2022-10-31T10:32:50;9.53;;;7.00;;
32826;SDS011;51059;42.058;27.986;2022-10-31T10:40:54;12.40;;;6.23;;
32826;SDS011;51059;42.058;27.986;2022-10-31T10:43:29;11.83;;;6.70;;
32826;SDS011;51059;42.058;27.986;2022-10-31T11:02:49;11.10;;;6.57;;
32826;SDS011;51059;42.058;27.986;2022-10-31T11:05:21;9.47;;;6.47;;
32826;SDS011;51059;42.058;27.986;2022-10-31T11:07:50;10.23;;;6.33;;
32826;SDS011;51059;42.058;27.986;2022-10-31T11:10:16;9.00;;;6.73;;
32826;SDS011;51059;42.058;27.986;2022-10-31T11:12:56;8.33;;;6.53;;
32826;SDS011;51059;42.058;27.986;2022-10-31T11:15:39;8.70;;;6.17;;
32826;SDS011;51059;42.058;27.986;2022-10-31T11:18:20;9.50;;;6.37;;
32826;SDS011;51059;42.058;27.986;2022-10-31T11:20:54;11.37;;;6.83;;
32826;SDS011;51059;42.058;27.986;2022-10-31T11:23:22;11.57;;;6.43;;
32826;SDS011;51059;42.058;27.986;2022-10-31T11:25:54;11.25;;;6.78;;
32826;SDS011;51059;42.058;27.986;2022-10-31T11:28:22;11.67;;;6.73;;
32826;SDS011;51059;42.058;27.986;2022-10-31T11:30:57;9.63;;;6.63;;
32826;SDS011;51059;42.058;27.986;2022-10-31T11:33:29;7.90;;;6.87;;
32826;SDS011;51059;42.058;27.986;2022-10-31T11:38:48;10.60;;;6.77;;
32826;SDS011;51059;42.058;27.986;2022-10-31T11:41:19;6.97;;;6.30;;
32826;SDS011;51059;42.058;27.986;2022-10-31T11:43:52;13.00;;;6.77;;
32826;SDS011;51059;42.058;27.986;2022-10-31T11:49:00;12.23;;;7.10;;
32826;SDS011;51059;42.058;27.986;2022-10-31T11:51:27;7.63;;;6.83;;
32826;SDS011;51059;42.058;27.986;2022-10-31T11:53:57;9.13;;;7.03;;
32826;SDS011;51059;42.058;27.986;2022-10-31T11:56:23;9.30;;;7.23;;
32826;SDS011;51059;42.058;27.986;2022-10-31T11:59:00;13.07;;;7.30;;
32826;SDS011;51059;42.058;27.986;2022-10-31T12:01:28;12.23;;;6.93;;
32826;SDS011;51059;42.058;27.986;2022-10-31T12:04:06;9.73;;;7.43;;
32826;SDS011;51059;42.058;27.986;2022-10-31T12:06:34;9.47;;;6.93;;
32826;SDS011;51059;42.058;27.986;2022-10-31T12:09:24;11.77;;;7.10;;
32826;SDS011;51059;42.058;27.986;2022-10-31T12:20:49;10.30;;;7.17;;
32826;SDS011;51059;42.058;27.986;2022-10-31T12:26:33;12.80;;;7.57;;
32826;SDS011;51059;42.058;27.986;2022-10-31T12:29:26;12.83;;;7.17;;
32826;SDS011;51059;42.058;27.986;2022-10-31T12:32:09;10.20;;;7.57;;
32826;SDS011;51059;42.058;27.986;2022-10-31T12:38:04;14.07;;;7.43;;
32826;SDS011;51059;42.058;27.986;2022-10-31T12:43:34;12.60;;;7.57;;
32826;SDS011;51059;42.058;27.986;2022-10-31T12:46:04;12.37;;;7.60;;
32826;SDS011;51059;42.058;27.986;2022-10-31T12:54:10;8.93;;;7.90;;
32826;SDS011;51059;42.058;27.986;2022-10-31T12:59:49;12.90;;;7.70;;
32826;SDS011;51059;42.058;27.986;2022-10-31T13:07:41;11.47;;;7.87;;
32826;SDS011;51059;42.058;27.986;2022-10-31T13:10:29;11.77;;;7.23;;
32826;SDS011;51059;42.058;27.986;2022-10-31T13:13:00;13.53;;;7.50;;
32826;SDS011;51059;42.058;27.986;2022-10-31T13:15:46;10.37;;;7.67;;
32826;SDS011;51059;42.058;27.986;2022-10-31T13:18:27;10.03;;;7.87;;
32826;SDS011;51059;42.058;27.986;2022-10-31T13:20:57;11.03;;;8.00;;
32826;SDS011;51059;42.058;27.986;2022-10-31T13:26:03;11.67;;;7.60;;
32826;SDS011;51059;42.058;27.986;2022-10-31T13:28:36;9.13;;;7.57;;
32826;SDS011;51059;42.058;27.986;2022-10-31T13:31:03;8.10;;;7.23;;
32826;SDS011;51059;42.058;27.986;2022-10-31T13:39:13;13.03;;;8.00;;
32826;SDS011;51059;42.058;27.986;2022-10-31T13:41:56;10.93;;;7.10;;
32826;SDS011;51059;42.058;27.986;2022-10-31T13:44:34;9.83;;;7.50;;
32826;SDS011;51059;42.058;27.986;2022-10-31T13:47:02;13.80;;;7.77;;
32826;SDS011;51059;42.058;27.986;2022-10-31T13:54:35;8.67;;;6.93;;
32826;SDS011;51059;42.058;27.986;2022-10-31T13:57:07;14.63;;;8.00;;
32826;SDS011;51059;42.058;27.986;2022-10-31T13:59:45;12.37;;;7.50;;
32826;SDS011;51059;42.058;27.986;2022-10-31T14:02:16;10.70;;;7.33;;
32826;SDS011;51059;42.058;27.986;2022-10-31T14:04:46;14.27;;;8.07;;
32826;SDS011;51059;42.058;27.986;2022-10-31T14:07:15;9.53;;;7.53;;
32826;SDS011;51059;42.058;27.986;2022-10-31T14:12:48;9.47;;;7.67;;
32826;SDS011;51059;42.058;27.986;2022-10-31T14:15:18;11.83;;;8.30;;
32826;SDS011;51059;42.058;27.986;2022-10-31T14:17:49;12.50;;;9.03;;
32826;SDS011;51059;42.058;27.986;2022-10-31T14:23:25;11.13;;;8.93;;
32826;SDS011;51059;42.058;27.986;2022-10-31T14:26:16;11.60;;;8.77;;
32826;SDS011;51059;42.058;27.986;2022-10-31T14:28:51;11.93;;;8.27;;
32826;SDS011;51059;42.058;27.986;2022-10-31T14:31:37;14.13;;;9.13;;
32826;SDS011;51059;42.058;27.986;2022-10-31T14:42:35;12.83;;;8.63;;
32826;SDS011;51059;42.058;27.986;2022-10-31T14:45:31;12.77;;;7.97;;
32826;SDS011;51059;42.058;27.986;2022-10-31T14:51:07;10.93;;;7.17;;
32826;SDS011;51059;42.058;27.986;2022-10-31T14:53:48;14.43;;;7.87;;
32826;SDS011;51059;42.058;27.986;2022-10-31T14:56:25;10.93;;;7.07;;
32826;SDS011;51059;42.058;27.986;2022-10-31T14:58:55;8.90;;;7.03;;
32826;SDS011;51059;42.058;27.986;2022-10-31T15:01:32;10.50;;;7.57;;
32826;SDS011;51059;42.058;27.986;2022-10-31T15:04:18;12.17;;;7.40;;
32826;SDS011;51059;42.058;27.986;2022-10-31T15:06:48;9.70;;;6.73;;
32826;SDS011;51059;42.058;27.986;2022-10-31T15:09:22;11.90;;;6.73;;
32826;SDS011;51059;42.058;27.986;2022-10-31T15:11:49;12.43;;;6.40;;
32826;SDS011;51059;42.058;27.986;2022-10-31T15:14:35;11.03;;;6.57;;
32826;SDS011;51059;42.058;27.986;2022-10-31T15:17:01;9.27;;;6.70;;
32826;SDS011;51059;42.058;27.986;2022-10-31T15:19:28;10.03;;;6.43;;
32826;SDS011;51059;42.058;27.986;2022-10-31T15:21:56;11.40;;;6.17;;
32826;SDS011;51059;42.058;27.986;2022-10-31T15:24:23;11.87;;;6.20;;
32826;SDS011;51059;42.058;27.986;2022-10-31T15:26:51;10.80;;;6.40;;
32826;SDS011;51059;42.058;27.986;2022-10-31T15:29:19;10.13;;;6.47;;
32826;SDS011;51059;42.058;27.986;2022-10-31T15:34:29;11.73;;;6.60;;
32826;SDS011;51059;42.058;27.986;2022-10-31T15:36:58;9.07;;;6.10;;
32826;SDS011;51059;42.058;27.986;2022-10-31T15:39:23;9.43;;;6.80;;
32826;SDS011;51059;42.058;27.986;2022-10-31T15:41:53;8.97;;;6.60;;
32826;SDS011;51059;42.058;27.986;2022-10-31T15:44:24;7.70;;;6.33;;
32826;SDS011;51059;42.058;27.986;2022-10-31T15:46:55;10.33;;;6.43;;
32826;SDS011;51059;42.058;27.986;2022-10-31T15:49:42;9.13;;;6.23;;
32826;SDS011;51059;42.058;27.986;2022-10-31T15:52:16;13.47;;;6.53;;
32826;SDS011;51059;42.058;27.986;2022-10-31T15:54:50;9.17;;;7.17;;
32826;SDS011;51059;42.058;27.986;2022-10-31T15:57:19;10.63;;;6.87;;
32826;SDS011;51059;42.058;27.986;2022-10-31T15:59:46;10.10;;;7.53;;
32826;SDS011;51059;42.058;27.986;2022-10-31T16:02:13;11.47;;;7.33;;
32826;SDS011;51059;42.058;27.986;2022-10-31T16:05:45;16.43;;;7.77;;
32826;SDS011;51059;42.058;27.986;2022-10-31T16:07:47;13.50;;;8.20;;
32826;SDS011;51059;42.058;27.986;2022-10-31T16:10:21;11.70;;;9.00;;
32826;SDS011;51059;42.058;27.986;2022-10-31T16:12:49;11.10;;;9.20;;
32826;SDS011;51059;42.058;27.986;2022-10-31T16:15:15;18.00;;;10.30;;
32826;SDS011;51059;42.058;27.986;2022-10-31T16:17:42;14.93;;;10.37;;
32826;SDS011;51059;42.058;27.986;2022-10-31T16:20:21;12.17;;;9.10;;
32826;SDS011;51059;42.058;27.986;2022-10-31T16:22:48;11.40;;;8.80;;
32826;SDS011;51059;42.058;27.986;2022-10-31T16:25:16;11.03;;;8.33;;
32826;SDS011;51059;42.058;27.986;2022-10-31T16:27:52;14.07;;;8.33;;
32826;SDS011;51059;42.058;27.986;2022-10-31T16:30:38;10.57;;;7.80;;
32826;SDS011;51059;42.058;27.986;2022-10-31T16:33:25;10.60;;;7.83;;
32826;SDS011;51059;42.058;27.986;2022-10-31T16:35:54;10.57;;;7.63;;
32826;SDS011;51059;42.058;27.986;2022-10-31T16:38:20;11.93;;;7.67;;
32826;SDS011;51059;42.058;27.986;2022-10-31T16:40:46;13.30;;;7.87;;
32826;SDS011;51059;42.058;27.986;2022-10-31T16:43:12;9.97;;;7.33;;
32826;SDS011;51059;42.058;27.986;2022-10-31T16:45:43;8.33;;;7.33;;
32826;SDS011;51059;42.058;27.986;2022-10-31T16:48:14;10.40;;;7.77;;
32826;SDS011;51059;42.058;27.986;2022-10-31T16:50:42;13.87;;;7.53;;
32826;SDS011;51059;42.058;27.986;2022-10-31T16:53:09;11.27;;;7.70;;
32826;SDS011;51059;42.058;27.986;2022-10-31T16:55:46;13.53;;;8.47;;